createdAt,value
2022-10-15T00:07:58.085Z,97.90
2022-10-15T06:47:48.489Z,99.90
2022-10-15T07:11:42.317Z,99.90
2022-10-15T07:26:16.195Z,99.90
2022-10-15T07:43:34.482Z,99.90
2022-10-15T07:46:15.448Z,99.90
2022-10-15T07:48:50.184Z,99.90
2022-10-15T07:57:17.275Z,99.90
2022-10-15T08:15:14.918Z,99.90
2022-10-15T08:18:07.475Z,96.10
2022-10-15T08:20:42.345Z,52.50
2022-10-15T08:23:39.985Z,26.20
2022-10-15T08:26:11.068Z,31.40
2022-10-15T08:28:40.236Z,1.90
2022-10-15T08:31:07.145Z,1.00
2022-10-15T08:33:35.047Z,1.00
2022-10-15T08:36:02.158Z,1.00
2022-10-15T08:38:30.605Z,1.00
2022-10-15T08:40:58.265Z,1.00
2022-10-15T08:43:27.387Z,1.00
2022-10-15T08:45:57.789Z,1.00
2022-10-15T08:48:30.458Z,1.00
2022-10-15T08:51:12.248Z,1.00
2022-10-15T08:53:41.672Z,1.00
2022-10-15T08:56:27.437Z,1.00
2022-10-15T08:58:54.383Z,1.00
2022-10-15T09:01:26.593Z,1.00
2022-10-15T09:04:05.731Z,1.00
2022-10-15T09:06:37.418Z,1.00
2022-10-15T09:09:16.658Z,1.00
2022-10-15T09:11:46.590Z,1.00
2022-10-15T09:14:16.665Z,1.00
2022-10-15T09:16:44.465Z,1.00
2022-10-15T09:19:19.567Z,1.00
2022-10-15T09:21:50.763Z,1.00
2022-10-15T09:24:26.315Z,1.00
2022-10-15T09:27:13.039Z,1.00
2022-10-15T09:29:49.821Z,1.00
2022-10-15T09:32:35.198Z,1.00
2022-10-15T09:35:12.878Z,1.00
2022-10-15T09:38:05.671Z,1.00
2022-10-15T09:40:48.542Z,1.00
2022-10-15T09:43:18.197Z,1.00
2022-10-15T09:45:46.026Z,1.00
2022-10-15T09:48:17.044Z,1.00
2022-10-15T09:50:53.980Z,1.00
2022-10-15T09:53:28.236Z,1.00
2022-10-15T09:56:14.258Z,1.00
2022-10-15T09:58:58.628Z,1.00
2022-10-15T10:01:31.310Z,1.00
2022-10-15T10:04:20.042Z,1.00
2022-10-15T10:06:59.554Z,1.00
2022-10-15T10:09:36.109Z,1.00
2022-10-15T10:14:57.038Z,1.00
2022-10-15T10:23:30.512Z,1.00
2022-10-15T10:26:13.335Z,1.00
2022-10-15T10:28:56.933Z,1.00
2022-10-15T10:31:44.974Z,1.00
2022-10-15T10:34:40.421Z,1.00
2022-10-15T10:37:07.855Z,1.00
2022-10-15T10:39:40.407Z,1.00
2022-10-15T10:42:23.915Z,1.00
2022-10-15T10:44:58.808Z,1.00
2022-10-15T10:47:43.022Z,1.00
2022-10-15T10:50:33.097Z,1.00
2022-10-15T10:53:21.223Z,1.00
2022-10-15T10:55:51.527Z,1.00
2022-10-15T10:58:26.994Z,1.00
2022-10-15T11:03:47.137Z,1.00
2022-10-15T11:06:17.240Z,1.00
2022-10-15T11:08:57.745Z,1.00
2022-10-15T11:11:42.144Z,1.00
2022-10-15T11:14:31.490Z,1.00
2022-10-15T11:24:04.724Z,1.00
2022-10-15T11:27:11.677Z,1.00
2022-10-15T11:29:44.227Z,1.00
2022-10-15T11:32:47.973Z,1.00
2022-10-15T11:35:40.837Z,1.00
2022-10-15T11:38:27.598Z,1.00
2022-10-15T11:41:03.112Z,1.00
2022-10-15T11:43:51.453Z,1.00
2022-10-15T11:46:33.854Z,1.00
2022-10-15T11:49:10.061Z,1.00
2022-10-15T11:51:56.257Z,1.00
2022-10-15T11:57:32.933Z,1.00
2022-10-15T12:00:43.999Z,1.00
2022-10-15T12:03:32.732Z,1.00
2022-10-15T12:06:11.854Z,1.00
2022-10-15T12:11:53.739Z,1.00
2022-10-15T12:14:59.307Z,1.00
2022-10-15T12:17:48.279Z,1.00
2022-10-15T12:20:18.854Z,1.00
2022-10-15T12:23:00.070Z,1.00
2022-10-15T12:25:57.251Z,1.00
2022-10-15T12:28:29.943Z,1.00
2022-10-15T12:34:55.603Z,1.00
2022-10-15T12:37:29.961Z,1.00
2022-10-15T12:40:30.109Z,1.00
2022-10-15T12:46:04.749Z,1.00
2022-10-15T12:48:41.820Z,1.00
2022-10-15T12:51:30.111Z,1.00
2022-10-15T12:54:18.674Z,1.00
2022-10-15T12:57:00.946Z,1.00
2022-10-15T13:00:03.971Z,1.00
2022-10-15T13:02:51.079Z,1.00
2022-10-15T13:05:54.151Z,1.00
2022-10-15T13:08:55.852Z,1.00
2022-10-15T13:11:30.621Z,1.00
2022-10-15T13:17:44.378Z,1.00
2022-10-15T13:20:28.176Z,1.00
2022-10-15T13:23:18.796Z,1.00
2022-10-15T13:26:20.577Z,1.00
2022-10-15T13:28:49.993Z,1.00
2022-10-15T13:31:32.732Z,1.00
2022-10-15T13:34:03.826Z,1.00
2022-10-15T13:36:35.108Z,1.00
2022-10-15T13:39:31.488Z,1.00
2022-10-15T13:42:10.833Z,1.00
2022-10-15T13:45:13.855Z,1.00
2022-10-15T13:47:49.617Z,1.00
2022-10-15T14:16:17.552Z,1.00
2022-10-15T14:19:08.004Z,1.00
2022-10-15T14:21:42.563Z,1.00
2022-10-15T14:24:36.732Z,99.90
2022-10-15T14:27:16.394Z,99.90
2022-10-15T14:29:59.853Z,99.90
2022-10-15T14:32:30.942Z,99.90
2022-10-15T14:35:48.580Z,99.90
2022-10-15T14:42:01.978Z,99.90
2022-10-15T15:08:03.076Z,99.90
2022-10-15T15:17:37.089Z,99.90
2022-10-15T15:20:08.743Z,99.90
2022-10-15T15:23:05.239Z,99.90
2022-10-15T15:45:04.314Z,1.00
2022-10-15T15:51:03.624Z,1.00
2022-10-15T15:53:32.863Z,1.00
2022-10-15T15:56:51.276Z,1.00
2022-10-15T15:59:24.401Z,1.00
2022-10-15T16:11:40.092Z,1.00
2022-10-15T16:14:09.500Z,1.00
2022-10-15T16:32:04.656Z,1.00
2022-10-15T16:34:42.834Z,1.00
2022-10-15T16:37:13.858Z,1.00
2022-10-15T16:39:42.251Z,1.40
2022-10-15T16:42:09.734Z,14.20
2022-10-15T16:44:39.057Z,21.50
2022-10-15T16:47:11.393Z,31.30
2022-10-15T16:49:39.287Z,39.50
2022-10-15T16:52:07.842Z,44.20
2022-10-15T16:54:35.919Z,50.20
2022-10-15T16:57:07.267Z,46.10
2022-10-15T16:59:50.774Z,48.50
2022-10-15T17:02:20.379Z,51.80
2022-10-15T17:04:49.788Z,44.60
2022-10-15T17:07:17.470Z,67.20
2022-10-15T17:09:54.205Z,74.70
2022-10-15T17:12:35.440Z,75.60
2022-10-15T17:15:33.660Z,79.50
2022-10-15T17:18:06.937Z,70.10
2022-10-15T17:20:35.153Z,67.40
2022-10-15T17:23:16.165Z,65.20
2022-10-15T17:25:47.605Z,50.40
2022-10-15T17:34:02.971Z,54.50
2022-10-15T17:36:33.659Z,56.60
2022-10-15T17:39:04.204Z,41.10
2022-10-15T17:42:04.780Z,52.00
2022-10-15T17:44:34.083Z,45.20
2022-10-15T17:47:05.865Z,43.00
2022-10-15T17:49:35.553Z,33.00
2022-10-15T17:52:04.292Z,28.10
2022-10-15T17:54:32.458Z,37.20
2022-10-15T17:57:46.881Z,33.60
2022-10-15T18:00:22.451Z,34.40
2022-10-15T18:02:52.393Z,35.90
2022-10-15T18:05:46.968Z,26.50
2022-10-15T18:11:06.863Z,13.80
2022-10-15T18:13:33.953Z,18.70
2022-10-15T18:19:53.069Z,28.50
2022-10-15T18:22:20.922Z,17.60
2022-10-15T22:38:23.887Z,99.90
2022-10-15T22:44:25.398Z,99.90
